createdAt,value
2019-02-06T00:00:28.488Z,25.70
2019-02-06T00:05:29.865Z,27.83
2019-02-06T00:10:31.233Z,28.43
2019-02-06T00:15:32.611Z,22.20
2019-02-06T00:20:33.994Z,27.10
2019-02-06T00:25:35.320Z,23.03
2019-02-06T00:30:37.561Z,20.43
2019-02-06T00:35:38.961Z,22.70
2019-02-06T00:40:41.019Z,22.43
2019-02-06T00:45:42.356Z,26.70
2019-02-06T00:50:43.723Z,22.87
2019-02-06T00:55:45.160Z,24.30
2019-02-06T01:00:46.577Z,21.00
2019-02-06T01:05:48.687Z,18.23
2019-02-06T01:10:50.046Z,23.57
2019-02-06T01:15:51.437Z,21.27
2019-02-06T01:20:52.812Z,23.90
2019-02-06T01:25:54.206Z,23.27
2019-02-06T01:30:55.545Z,25.60
2019-02-06T01:35:57.024Z,24.83
2019-02-06T01:40:58.379Z,25.97
2019-02-06T01:45:59.751Z,25.20
2019-02-06T01:51:01.100Z,29.60
2019-02-06T01:56:02.431Z,26.70
2019-02-06T02:01:03.902Z,28.67
2019-02-06T02:06:05.321Z,28.20
2019-02-06T02:11:06.661Z,30.83
2019-02-06T02:16:08.017Z,22.87
2019-02-06T02:21:09.414Z,25.50
2019-02-06T02:26:11.560Z,26.50
2019-02-06T02:31:12.950Z,24.80
2019-02-06T02:36:16.474Z,22.43
2019-02-06T02:41:16.523Z,22.20
2019-02-06T02:46:17.939Z,22.00
2019-02-06T02:51:19.419Z,20.10
2019-02-06T02:56:20.797Z,23.70
2019-02-06T03:01:28.991Z,22.87
2019-02-06T03:06:30.527Z,22.30
2019-02-06T03:11:31.836Z,22.77
2019-02-06T03:16:41.111Z,26.53
2019-02-06T03:21:47.600Z,25.20
2019-02-06T03:26:48.925Z,25.57
2019-02-06T03:31:50.286Z,24.00
2019-02-06T03:36:51.665Z,24.00
2019-02-06T03:41:52.999Z,24.77
2019-02-06T03:46:54.397Z,23.73
2019-02-06T03:51:55.780Z,26.33
2019-02-06T03:56:57.130Z,23.27
2019-02-06T04:01:58.513Z,22.40
2019-02-06T04:07:01.071Z,25.90
2019-02-06T04:12:02.959Z,25.73
2019-02-06T04:17:08.469Z,23.90
2019-02-06T04:22:09.829Z,23.77
2019-02-06T04:27:11.228Z,22.10
2019-02-06T04:32:12.564Z,22.07
2019-02-06T04:37:14.014Z,21.90
2019-02-06T04:42:15.372Z,19.40
2019-02-06T04:47:17.487Z,18.53
2019-02-06T04:52:18.945Z,21.33
2019-02-06T04:57:20.387Z,21.90
2019-02-06T05:02:22.538Z,15.00
2019-02-06T05:07:24.699Z,19.90
2019-02-06T05:12:26.049Z,18.47
2019-02-06T05:17:27.593Z,22.37
2019-02-06T05:22:29.669Z,21.77
2019-02-06T05:27:31.828Z,20.27
2019-02-06T05:32:33.958Z,22.33
2019-02-06T05:37:35.330Z,19.27
2019-02-06T05:42:36.787Z,18.83
2019-02-06T05:47:38.325Z,22.43
2019-02-06T05:52:39.744Z,52.70
2019-02-06T05:57:41.106Z,20.63
2019-02-06T06:02:42.477Z,22.07
2019-02-06T06:07:45.501Z,20.40
2019-02-06T06:12:46.103Z,26.33
2019-02-06T06:17:47.478Z,22.27
2019-02-06T06:22:48.908Z,22.90
2019-02-06T06:27:50.255Z,21.90
2019-02-06T06:32:51.608Z,18.67
2019-02-06T06:37:59.799Z,18.53
2019-02-06T06:42:54.613Z,20.47
2019-02-06T06:47:55.965Z,18.80
2019-02-06T06:52:58.371Z,19.73
2019-02-06T06:57:59.840Z,20.17
2019-02-06T07:03:01.124Z,20.37
2019-02-06T07:08:09.595Z,20.07
2019-02-06T07:13:03.923Z,22.37
2019-02-06T07:18:05.251Z,20.37
2019-02-06T07:23:07.331Z,20.97
2019-02-06T07:28:09.408Z,18.67
2019-02-06T07:33:11.596Z,22.27
2019-02-06T07:38:23.579Z,17.10
2019-02-06T07:43:14.351Z,19.80
2019-02-06T07:48:18.935Z,22.03
2019-02-06T07:53:27.844Z,16.40
2019-02-06T07:58:29.163Z,19.07
2019-02-06T08:03:30.662Z,19.23
2019-02-06T08:08:36.161Z,19.77
2019-02-06T08:13:33.252Z,22.17
2019-02-06T08:18:34.582Z,21.80
2019-02-06T08:23:35.907Z,24.17
2019-02-06T08:28:37.231Z,19.77
2019-02-06T08:33:38.566Z,21.20
2019-02-06T08:38:47.421Z,20.13
2019-02-06T08:43:41.256Z,20.40
2019-02-06T08:48:42.572Z,24.33
2019-02-06T08:53:43.889Z,21.40
2019-02-06T08:58:45.235Z,22.67
2019-02-06T09:03:46.559Z,22.07
2019-02-06T09:08:58.979Z,19.17
2019-02-06T09:13:50.031Z,19.40
2019-02-06T09:18:52.110Z,21.07
2019-02-06T09:23:53.466Z,24.03
2019-02-06T09:28:54.813Z,21.07
2019-02-06T09:33:56.122Z,20.97
2019-02-06T09:38:57.394Z,25.33
2019-02-06T09:43:58.686Z,21.33
2019-02-06T09:49:00.037Z,21.80
2019-02-06T09:54:01.383Z,22.97
2019-02-06T09:59:02.744Z,24.97
2019-02-06T10:04:04.056Z,21.67
2019-02-06T10:09:05.400Z,22.20
2019-02-06T10:14:06.753Z,29.90
2019-02-06T10:19:08.086Z,24.77
2019-02-06T10:24:10.105Z,26.40
2019-02-06T10:29:11.387Z,26.47
2019-02-06T10:34:12.728Z,29.23
2019-02-06T10:39:14.136Z,29.53
2019-02-06T10:44:15.510Z,32.27
2019-02-06T10:49:16.872Z,30.67
2019-02-06T10:54:18.163Z,33.60
2019-02-06T10:59:19.517Z,31.93
2019-02-06T11:04:20.914Z,30.87
2019-02-06T11:09:22.218Z,33.73
2019-02-06T11:14:23.551Z,34.57
2019-02-06T11:19:24.906Z,29.93
2019-02-06T11:24:26.879Z,35.37
2019-02-06T11:29:27.561Z,31.87
2019-02-06T11:34:28.965Z,32.23
2019-02-06T11:39:30.268Z,31.13
2019-02-06T11:44:31.628Z,33.67
2019-02-06T11:49:32.920Z,34.37
2019-02-06T11:54:34.221Z,31.50
2019-02-06T11:59:35.560Z,34.17
2019-02-06T12:04:36.919Z,36.73
2019-02-06T12:09:38.989Z,31.87
2019-02-06T12:14:40.392Z,38.63
2019-02-06T12:19:41.803Z,36.17
2019-02-06T12:24:43.049Z,30.13
2019-02-06T12:29:44.393Z,36.47
2019-02-06T12:34:46.595Z,36.50
2019-02-06T12:39:47.969Z,38.03
2019-02-06T12:44:49.295Z,34.50
2019-02-06T12:49:50.953Z,38.70
2019-02-06T12:54:53.033Z,32.27
2019-02-06T12:59:54.349Z,35.10
2019-02-06T13:04:55.695Z,28.27
2019-02-06T13:09:57.013Z,31.63
2019-02-06T13:14:58.348Z,29.23
2019-02-06T13:19:59.660Z,29.23
2019-02-06T13:25:00.993Z,31.20
2019-02-06T13:30:02.321Z,28.30
2019-02-06T13:35:03.633Z,29.17
2019-02-06T13:40:06.674Z,32.03
2019-02-06T13:45:08.822Z,29.30
2019-02-06T13:50:21.293Z,32.90
2019-02-06T13:55:14.595Z,33.23
2019-02-06T14:00:26.936Z,29.47
2019-02-06T14:05:28.227Z,30.73
2019-02-06T14:10:29.568Z,30.17
2019-02-06T14:15:32.463Z,28.47
2019-02-06T14:20:33.812Z,29.50
2019-02-06T14:25:46.885Z,26.87
2019-02-06T14:37:03.363Z,33.97
2019-02-06T14:42:13.451Z,24.77
2019-02-06T14:47:36.571Z,25.60
2019-02-06T14:59:07.131Z,30.10
2019-02-06T15:10:14.617Z,34.70
2019-02-06T15:21:13.511Z,38.15
2019-02-06T15:26:21.857Z,33.30
2019-02-06T15:31:38.951Z,32.90
2019-02-06T15:42:43.308Z,36.75
2019-02-06T15:48:18.019Z,34.47
2019-02-06T15:53:23.624Z,32.03
2019-02-06T15:58:32.561Z,32.43
2019-02-06T16:09:21.988Z,33.30
2019-02-06T16:14:47.203Z,26.07
2019-02-06T16:20:15.533Z,29.90
2019-02-06T16:25:24.507Z,32.70
2019-02-06T16:30:40.705Z,30.67
2019-02-06T16:41:40.628Z,38.88
2019-02-06T16:52:45.085Z,37.97
2019-02-06T17:09:39.470Z,41.80
2019-02-06T17:14:44.740Z,34.97
2019-02-06T17:31:43.514Z,46.72
2019-02-06T17:36:47.955Z,41.80
2019-02-06T17:48:36.738Z,48.45
2019-02-06T17:53:50.217Z,40.67
2019-02-06T17:58:51.564Z,43.60
2019-02-06T18:03:55.503Z,39.73
2019-02-06T18:08:57.954Z,42.77
2019-02-06T18:14:00.538Z,39.47
2019-02-06T18:19:02.119Z,40.87
2019-02-06T18:24:05.513Z,41.63
2019-02-06T18:29:07.651Z,38.73
2019-02-06T18:34:09.036Z,39.60
2019-02-06T18:39:10.742Z,37.97
2019-02-06T18:44:12.355Z,39.20
2019-02-06T18:49:13.716Z,39.37
2019-02-06T18:54:15.082Z,39.87
2019-02-06T18:59:17.643Z,35.93
2019-02-06T19:04:19.044Z,34.00
2019-02-06T19:09:20.402Z,33.47
2019-02-06T19:14:22.084Z,36.37
2019-02-06T19:19:25.474Z,30.20
2019-02-06T19:24:24.736Z,29.47
2019-02-06T19:29:26.793Z,35.77
2019-02-06T19:34:28.125Z,32.20
2019-02-06T19:39:29.484Z,35.60
2019-02-06T19:44:30.925Z,33.73
2019-02-06T19:49:32.257Z,32.90
2019-02-06T19:54:33.618Z,32.63
2019-02-06T19:59:34.973Z,36.57
2019-02-06T20:04:36.283Z,31.23
2019-02-06T20:09:38.189Z,32.77
2019-02-06T20:14:43.261Z,33.67
2019-02-06T20:19:45.983Z,44.83
2019-02-06T20:24:48.489Z,35.73
2019-02-06T20:29:50.698Z,36.60
2019-02-06T20:34:56.613Z,33.53
2019-02-06T20:39:58.783Z,33.07
2019-02-06T20:45:01.240Z,37.27
2019-02-06T20:50:02.582Z,36.37
2019-02-06T20:55:04.671Z,32.40
2019-02-06T21:00:11.942Z,35.73
2019-02-06T21:05:13.456Z,35.47
2019-02-06T21:10:25.278Z,34.70
2019-02-06T21:15:26.658Z,39.33
2019-02-06T21:20:28.016Z,38.80
2019-02-06T21:25:29.449Z,38.60
2019-02-06T21:30:33.686Z,38.60
2019-02-06T21:35:35.756Z,33.47
2019-02-06T21:40:42.764Z,41.07
2019-02-06T21:45:47.933Z,36.53
2019-02-06T21:50:50.258Z,41.77
2019-02-06T22:01:07.013Z,37.13
2019-02-06T22:06:18.259Z,37.97
2019-02-06T22:11:22.973Z,37.20
2019-02-06T22:16:26.373Z,36.60
2019-02-06T22:21:36.434Z,36.03
2019-02-06T22:26:49.330Z,33.47
2019-02-06T22:31:55.423Z,32.80
2019-02-06T22:37:01.935Z,34.23
2019-02-06T22:42:18.897Z,35.10
2019-02-06T22:47:23.251Z,34.13
2019-02-06T22:52:28.511Z,31.13
2019-02-06T22:57:33.627Z,41.17
2019-02-06T23:02:35.624Z,32.73
2019-02-06T23:12:55.641Z,37.00
2019-02-06T23:18:03.108Z,34.60
2019-02-06T23:23:08.373Z,34.57
2019-02-06T23:28:09.675Z,38.57
2019-02-06T23:33:11.001Z,33.67
2019-02-06T23:38:12.340Z,36.43
2019-02-06T23:43:13.665Z,37.13
2019-02-06T23:48:15.067Z,46.87
2019-02-06T23:53:16.432Z,42.80
2019-02-06T23:58:17.993Z,44.47
